No particular awareness of the weather is required.    There are no Weather-warnings


Meteo18 Weather Cam more information Meteo18 Weather Cam


Thunder radar more information blitzortung!


Rain radar more information rain snow radar


Visit our other weather sites:

Template documentation
and downloads

And another site



Weather Underground History page Text

Daily Summary for May 3, 2017 Units:  English    Metric   Both
« Previous Day
Next Day »
Daily Weekly Monthly Yearly Custom
  High: Low: Average:
Temperature: TemperatureC °F 5.5 °F 9.3 °F
Dew Point: DewpointC °F 4.5 °F 7.2 °F
Humidity: Humidity % 68 % 87 %
Wind Speed: WindSpeedKMH mph 0.0 mph 1.3 mph
Wind Gust: WindSpeedGustKMH mph - -
Wind:- - SSE
Pressure: PressurehPa in 1017.2 in -
Precipitation: 2.8 in    
Historical Graphs
 
 
Tabular Data for May 3, 2017
Time Temperature Dew Point Pressure Wind Wind Speed Wind Gust Humidity Rainfall Rate (Hourly)
TemperatureC °F DewpointC °F PressurehPa in Calm     Humidity % HourlyPrecipMM in
00:02 9.6 °F 7.0 °F 1019.5 in Calm   4.8 mph 84 % 0.0 in
00:07 9.7 °F 7.1 °F 1019.5 in Calm   3.2 mph 84 % 0.0 in
00:12 9.6 °F 7.0 °F 1019.5 in Calm   4.8 mph 84 % 0.0 in
00:17 9.4 °F 7.0 °F 1019.5 in Calm   4.8 mph 85 % 0.0 in
00:22 9.2 °F 6.8 °F 1019.5 in Calm   1.6 mph 85 % 0.0 in
00:32 8.9 °F 6.9 °F 1019.5 in Calm   1.6 mph 87 % 0.0 in
00:42 8.7 °F 6.8 °F 1019.5 in West 1.6 mph 3.2 mph 88 % 0.0 in
00:47 8.7 °F 6.8 °F 1019.5 in West 1.6 mph 3.2 mph 88 % 0.0 in
00:52 8.7 °F 6.7 °F 1019.5 in Calm   3.2 mph 87 % 0.0 in
00:57 8.6 °F 6.6 °F 1019.5 in Calm   3.2 mph 87 % 0.0 in
01:02 8.5 °F 6.5 °F 1019.5 in Calm   3.2 mph 87 % 0.0 in
01:07 8.4 °F 6.5 °F 1019.5 in Calm   1.6 mph 88 % 0.0 in
01:12 8.2 °F 6.3 °F 1019.5 in Calm   1.6 mph 88 % 0.0 in
01:17 8.1 °F 6.4 °F 1019.5 in Calm   1.6 mph 89 % 0.0 in
01:22 8.0 °F 6.3 °F 1019.5 in Calm   3.2 mph 89 % 0.0 in
01:27 7.8 °F 6.1 °F 1019.5 in Calm   3.2 mph 89 % 0.0 in
01:32 7.8 °F 6.3 °F 1019.5 in Calm   3.2 mph 90 % 0.0 in
01:37 7.8 °F 6.3 °F 1019.5 in Calm   1.6 mph 90 % 0.0 in
01:42 7.8 °F 6.3 °F 1019.5 in Calm   1.6 mph 90 % 0.0 in
01:47 7.9 °F 6.4 °F 1019.5 in Calm   1.6 mph 90 % 0.0 in
01:52 8.0 °F 6.5 °F 1019.2 in Calm   1.6 mph 90 % 0.0 in
01:57 8.0 °F 6.5 °F 1019.2 in Calm   1.6 mph 90 % 0.0 in
02:02 8.0 °F 6.3 °F 1019.2 in Calm   1.6 mph 89 % 0.0 in
02:07 7.9 °F 6.2 °F 1019.2 in Calm   1.6 mph 89 % 0.0 in
02:12 7.9 °F 6.4 °F 1019.2 in Calm   1.6 mph 90 % 0.0 in
02:17 7.8 °F 6.1 °F 1019.2 in Calm   1.6 mph 89 % 0.0 in
02:22 7.8 °F 6.3 °F 1019.2 in Calm     90 % 0.0 in
02:27 7.7 °F 6.0 °F 1019.2 in Calm     89 % 0.0 in
02:32 7.4 °F 5.9 °F 1019.2 in Calm   1.6 mph 90 % 0.0 in
02:37 7.2 °F 5.7 °F 1019.2 in Calm   1.6 mph 90 % 0.0 in
02:42 7.1 °F 5.7 °F 1019.2 in Calm   1.6 mph 91 % 0.0 in
02:47 7.1 °F 5.7 °F 1019.2 in Calm   1.6 mph 91 % 0.0 in
02:52 6.9 °F 5.5 °F 1019.2 in Calm   1.6 mph 91 % 0.0 in
02:57 6.8 °F 5.6 °F 1019.2 in Calm   1.6 mph 92 % 0.0 in
03:02 6.8 °F 5.6 °F 1019.2 in Calm   1.6 mph 92 % 0.0 in
03:07 6.6 °F 5.4 °F 1019.2 in Calm   1.6 mph 92 % 0.0 in
03:12 6.4 °F 5.2 °F 1018.8 in Calm   1.6 mph 92 % 0.0 in
03:22 6.6 °F 5.7 °F 1018.8 in Calm   1.6 mph 94 % 0.0 in
03:27 6.8 °F 5.9 °F 1018.8 in Calm   1.6 mph 94 % 0.0 in
03:32 6.9 °F 5.8 °F 1018.8 in Calm   1.6 mph 93 % 0.0 in
03:37 6.9 °F 5.8 °F 1018.8 in Calm   1.6 mph 93 % 0.0 in
03:42 7.0 °F 5.9 °F 1018.8 in Calm   1.6 mph 93 % 0.0 in
03:47 6.9 °F 5.7 °F 1018.8 in Calm   1.6 mph 92 % 0.0 in
03:52 6.8 °F 5.6 °F 1018.8 in Calm     92 % 0.0 in
03:57 6.9 °F 5.8 °F 1018.8 in Calm     93 % 0.0 in
04:02 6.8 °F 5.6 °F 1018.8 in Calm     92 % 0.0 in
04:07 6.7 °F 5.5 °F 1018.8 in Calm     92 % 0.0 in
04:12 6.8 °F 5.7 °F 1018.8 in Calm     93 % 0.0 in
04:17 6.6 °F 5.4 °F 1018.8 in Calm     92 % 0.0 in
04:22 6.4 °F 5.2 °F 1018.8 in Calm     92 % 0.0 in
04:27 6.3 °F 5.3 °F 1018.8 in Calm   1.6 mph 93 % 0.0 in
04:32 6.4 °F 5.4 °F 1018.8 in Calm   1.6 mph 93 % 0.0 in
04:37 6.6 °F 5.7 °F 1018.8 in Calm   1.6 mph 94 % 0.0 in
04:42 6.7 °F 5.8 °F 1018.8 in Calm     94 % 0.0 in
04:47 6.6 °F 5.5 °F 1018.8 in Calm     93 % 0.0 in
04:52 6.5 °F 5.4 °F 1018.8 in Calm     93 % 0.0 in
04:57 6.6 °F 5.7 °F 1018.8 in Calm     94 % 0.0 in
05:02 6.4 °F 5.4 °F 1018.8 in Calm     93 % 0.0 in
05:12 6.9 °F 6.0 °F 1018.8 in Calm   1.6 mph 94 % 0.0 in
05:17 7.1 °F 6.2 °F 1018.8 in NNW 1.6 mph 3.2 mph 94 % 0.0 in
05:22 7.1 °F 6.0 °F 1018.5 in Calm   3.2 mph 93 % 0.0 in
05:27 7.2 °F 6.1 °F 1018.5 in Calm   3.2 mph 93 % 0.0 in
05:32 7.2 °F 6.1 °F 1018.8 in Calm   1.6 mph 93 % 0.0 in
05:37 7.1 °F 6.0 °F 1018.5 in Calm   1.6 mph 93 % 0.0 in
05:42 7.0 °F 5.8 °F 1018.5 in Calm   1.6 mph 92 % 0.0 in
05:47 6.8 °F 5.6 °F 1018.5 in Calm     92 % 0.0 in
05:52 6.7 °F 5.5 °F 1018.5 in Calm     92 % 0.0 in
06:02 6.0 °F 4.8 °F 1018.5 in Calm     92 % 0.0 in
06:12 5.7 °F 4.5 °F 1018.5 in Calm   1.6 mph 92 % 0.0 in
06:17 5.6 °F 4.6 °F 1018.5 in Calm   1.6 mph 93 % 0.0 in
06:22 5.6 °F 4.6 °F 1018.8 in Calm     93 % 0.0 in
06:32 5.6 °F 4.7 °F 1018.8 in Calm     94 % 0.0 in
06:42 5.5 °F 4.6 °F 1018.8 in Calm     94 % 0.0 in
06:47 5.6 °F 4.7 °F 1018.8 in Calm     94 % 0.0 in
06:52 5.7 °F 4.8 °F 1018.8 in Calm     94 % 0.0 in
07:02 5.7 °F 4.8 °F 1018.8 in Calm     94 % 0.0 in
07:12 5.7 °F 4.8 °F 1018.8 in Calm   1.6 mph 94 % 0.0 in
07:17 5.8 °F 4.9 °F 1018.8 in Calm   1.6 mph 94 % 0.0 in
07:22 5.8 °F 5.1 °F 1018.8 in Calm     95 % 0.0 in
07:27 5.8 °F 5.1 °F 1018.8 in Calm     95 % 0.0 in
07:32 5.8 °F 5.1 °F 1018.8 in Calm     95 % 0.0 in
07:37 5.8 °F 5.1 °F 1018.8 in Calm     95 % 0.0 in
07:42 5.9 °F 5.2 °F 1018.8 in Calm     95 % 0.0 in
07:47 5.9 °F 5.2 °F 1018.8 in Calm     95 % 0.0 in
07:52 6.1 °F 5.4 °F 1018.8 in Calm     95 % 0.0 in
07:57 6.2 °F 5.5 °F 1018.8 in Calm     95 % 0.0 in
08:02 6.4 °F 5.7 °F 1018.8 in Calm     95 % 0.0 in
08:12 6.9 °F 6.2 °F 1018.8 in Calm     95 % 0.0 in
08:17 7.3 °F 6.6 °F 1018.8 in Calm   1.6 mph 95 % 0.0 in
08:22 7.7 °F 7.1 °F 1018.8 in Calm   1.6 mph 96 % 0.0 in
08:27 7.9 °F 7.1 °F 1018.8 in Calm   1.6 mph 95 % 0.0 in
08:32 8.3 °F 7.5 °F 1018.8 in Calm     95 % 0.0 in
08:42 8.9 °F 8.0 °F 1018.8 in Calm   1.6 mph 94 % 0.0 in
08:47 8.9 °F 7.7 °F 1018.8 in NE 4.8 mph 6.4 mph 92 % 0.0 in
08:57 8.7 °F 7.5 °F 1018.8 in ENE 1.6 mph 6.4 mph 92 % 0.0 in
09:02 8.6 °F 7.2 °F 1019.2 in ENE 1.6 mph 6.4 mph 91 % 0.0 in
09:12 8.8 °F 7.6 °F 1019.2 in ENE 1.6 mph 6.4 mph 92 % 0.0 in
09:17 8.8 °F 7.6 °F 1018.8 in Calm   4.8 mph 92 % 0.0 in
09:22 8.8 °F 7.6 °F 1019.2 in Calm   4.8 mph 92 % 0.0 in
09:27 8.9 °F 7.7 °F 1019.2 in Calm   3.2 mph 92 % 0.0 in
09:32 9.1 °F 7.9 °F 1019.2 in Calm   3.2 mph 92 % 0.0 in
09:37 9.0 °F 7.6 °F 1019.2 in Calm   3.2 mph 91 % 0.0 in
09:42 9.1 °F 7.7 °F 1019.2 in Calm   1.6 mph 91 % 0.0 in
09:47 9.2 °F 8.0 °F 1019.2 in SW 1.6 mph 1.6 mph 92 % 0.0 in
09:52 9.2 °F 7.8 °F 1019.2 in SSW 1.6 mph 3.2 mph 91 % 0.0 in
09:57 9.2 °F 7.8 °F 1019.2 in Calm   4.8 mph 91 % 0.0 in
10:02 9.3 °F 7.9 °F 1019.2 in Calm   4.8 mph 91 % 0.0 in
10:07 9.4 °F 8.0 °F 1019.2 in Calm   4.8 mph 91 % 0.0 in
10:12 9.7 °F 8.3 °F 1019.2 in Calm   1.6 mph 91 % 0.0 in
10:17 9.7 °F 8.1 °F 1019.2 in Calm     90 % 0.0 in
10:27 9.9 °F 8.2 °F 1019.2 in SE 1.6 mph   89 % 0.0 in
10:32 9.9 °F 8.2 °F 1019.2 in Calm   3.2 mph 89 % 0.0 in
10:37 9.9 °F 8.0 °F 1019.2 in SSW 1.6 mph 3.2 mph 88 % 0.0 in
10:42 9.9 °F 7.8 °F 1019.2 in SSW 1.6 mph 4.8 mph 87 % 0.0 in
10:47 10.0 °F 8.1 °F 1019.2 in SE 1.6 mph 4.8 mph 88 % 0.0 in
10:52 10.1 °F 8.2 °F 1019.2 in Calm   4.8 mph 88 % 0.0 in
10:57 10.2 °F 8.1 °F 1019.2 in SSE 3.2 mph 4.8 mph 87 % 0.0 in
11:02 10.2 °F 8.0 °F 1019.2 in South 3.2 mph 4.8 mph 86 % 0.0 in
11:12 10.2 °F 8.0 °F 1019.2 in SSW 3.2 mph 8.0 mph 86 % 0.0 in
11:17 10.2 °F 7.8 °F 1019.2 in SW 3.2 mph 8.0 mph 85 % 0.0 in
11:22 10.3 °F 7.7 °F 1019.2 in Calm   8.0 mph 84 % 0.0 in
11:27 10.4 °F 7.6 °F 1019.2 in Calm   8.0 mph 83 % 0.0 in
11:32 10.6 °F 7.8 °F 1019.2 in SSW 1.6 mph 8.0 mph 83 % 0.0 in
11:37 10.8 °F 8.2 °F 1019.2 in Calm   6.4 mph 84 % 0.0 in
11:42 11.2 °F 8.6 °F 1019.2 in Calm   1.6 mph 84 % 0.0 in
11:47 11.2 °F 8.4 °F 1019.2 in Calm   1.6 mph 83 % 0.0 in
11:52 11.1 °F 8.5 °F 1018.8 in NE 3.2 mph 3.2 mph 84 % 0.0 in
11:57 11.2 °F 8.6 °F 1018.8 in East 1.6 mph 6.4 mph 84 % 0.0 in
12:02 11.2 °F 8.1 °F 1018.8 in East 1.6 mph 6.4 mph 81 % 0.0 in
12:07 11.4 °F 8.3 °F 1018.8 in ENE 3.2 mph 6.4 mph 81 % 0.0 in
12:12 11.6 °F 8.5 °F 1018.8 in NE 1.6 mph 8.0 mph 81 % 0.0 in
12:17 11.7 °F 8.5 °F 1018.8 in Calm   8.0 mph 81 % 0.0 in
12:22 11.8 °F 8.1 °F 1018.8 in Calm   8.0 mph 78 % 0.0 in
12:27 12.1 °F 8.4 °F 1018.8 in NNE 4.8 mph 8.0 mph 78 % 0.0 in
12:32 12.2 °F 8.5 °F 1018.8 in Calm   8.0 mph 78 % 0.0 in
12:42 13.1 °F 8.4 °F 1018.8 in NNW 3.2 mph 6.4 mph 73 % 0.0 in
12:47 12.9 °F 8.4 °F 1018.8 in Calm   6.4 mph 74 % 0.0 in
12:52 13.1 °F 8.0 °F 1018.8 in NNE 3.2 mph 6.4 mph 71 % 0.0 in
12:57 12.6 °F 8.3 °F 1018.8 in NNW 9.7 mph 14.5 mph 75 % 0.0 in
13:02 11.8 °F 8.5 °F 1018.8 in NNW 9.7 mph 14.5 mph 80 % 0.0 in
13:12 10.9 °F 8.3 °F 1018.8 in Calm   14.5 mph 84 % 0.5 in
13:17 10.7 °F 8.3 °F 1018.8 in NNE 3.2 mph 9.7 mph 85 % 0.5 in
13:22 10.3 °F 7.9 °F 1018.8 in NNE 3.2 mph 8.0 mph 85 % 0.8 in
13:27 10.2 °F 7.6 °F 1018.8 in NNE 6.4 mph 11.3 mph 84 % 1.0 in
13:32 10.1 °F 7.5 °F 1018.8 in NE 6.4 mph 11.3 mph 84 % 1.0 in
13:37 10.1 °F 7.7 °F 1018.8 in NNE 3.2 mph 11.3 mph 85 % 1.0 in
13:42 10.2 °F 7.8 °F 1018.8 in NE 6.4 mph 9.7 mph 85 % 1.0 in
13:47 10.2 °F 7.8 °F 1018.5 in NE 1.6 mph 9.7 mph 85 % 1.0 in
13:52 10.3 °F 7.9 °F 1018.5 in NE 6.4 mph 9.7 mph 85 % 1.0 in
13:57 10.6 °F 8.4 °F 1018.5 in Calm   8.0 mph 86 % 1.0 in
14:02 10.9 °F 8.6 °F 1018.5 in Calm   8.0 mph 86 % 1.0 in
14:07 11.1 °F 8.7 °F 1018.5 in NW 4.8 mph 8.0 mph 85 % 0.5 in
14:12 11.2 °F 8.6 °F 1018.5 in Calm   12.9 mph 84 % 0.5 in
14:17 11.2 °F 8.4 °F 1018.5 in Calm   12.9 mph 83 % 0.3 in
14:22 11.1 °F 8.0 °F 1018.8 in Calm   12.9 mph 81 % 0.3 in
14:27 11.1 °F 8.0 °F 1018.5 in ESE 3.2 mph 8.0 mph 81 % 0.0 in
14:32 11.0 °F 8.2 °F 1018.5 in East 3.2 mph 4.8 mph 83 % 0.0 in
14:37 10.9 °F 8.1 °F 1018.5 in Calm   6.4 mph 83 % 0.0 in
14:42 11.2 °F 8.6 °F 1018.5 in ENE 1.6 mph 6.4 mph 84 % 0.0 in
14:47 11.0 °F 8.2 °F 1018.5 in Calm   3.2 mph 83 % 0.0 in
14:52 11.1 °F 8.5 °F 1018.2 in NE 3.2 mph 3.2 mph 84 % 0.0 in
14:57 11.2 °F 8.6 °F 1018.2 in NNE 3.2 mph 4.8 mph 84 % 0.0 in
15:02 11.5 °F 8.9 °F 1018.2 in NNE 8.0 mph 8.0 mph 84 % 0.0 in
15:07 11.7 °F 8.7 °F 1017.8 in North 6.4 mph 14.5 mph 82 % 0.0 in
15:12 11.8 °F 8.6 °F 1017.8 in North 6.4 mph 16.1 mph 81 % 0.0 in
15:17 12.1 °F 9.1 °F 1017.8 in NNW 6.4 mph 16.1 mph 82 % 0.0 in
15:22 12.3 °F 9.5 °F 1017.8 in NNW 4.8 mph 16.1 mph 83 % 0.0 in
15:27 12.3 °F 8.4 °F 1017.8 in NE 4.8 mph 14.5 mph 77 % 0.0 in
15:32 12.6 °F 8.9 °F 1017.8 in North 6.4 mph 12.9 mph 78 % 0.0 in
15:37 12.7 °F 8.6 °F 1017.8 in North 6.4 mph 12.9 mph 76 % 0.0 in
15:42 12.7 °F 8.6 °F 1017.8 in West 3.2 mph 11.3 mph 76 % 0.0 in
15:47 12.9 °F 8.4 °F 1017.8 in NE 1.6 mph 11.3 mph 74 % 0.0 in
15:52 13.1 °F 9.0 °F 1017.8 in Calm   8.0 mph 76 % 0.0 in
15:57 13.2 °F 8.3 °F 1017.8 in NNW 1.6 mph 6.4 mph 72 % 0.0 in
16:02 13.2 °F 8.7 °F 1017.8 in West 3.2 mph 6.4 mph 74 % 0.0 in
16:07 13.1 °F 8.2 °F 1017.8 in North 6.4 mph 6.4 mph 72 % 0.0 in
16:12 13.1 °F 8.2 °F 1017.8 in NW 1.6 mph 6.4 mph 72 % 0.0 in
16:17 13.2 °F 8.3 °F 1017.8 in Calm   6.4 mph 72 % 0.0 in
16:22 13.1 °F 7.8 °F 1017.8 in Calm   6.4 mph 70 % 0.0 in
16:27 13.2 °F 8.1 °F 1017.8 in Calm   4.8 mph 71 % 0.0 in
16:32 13.5 °F 7.7 °F 1017.8 in Calm   4.8 mph 68 % 0.0 in
16:37 13.5 °F 7.7 °F 1017.8 in Calm   3.2 mph 68 % 0.0 in
16:42 13.7 °F 8.1 °F 1017.5 in Calm   1.6 mph 69 % 0.0 in
16:47 13.5 °F 7.9 °F 1017.5 in Calm   3.2 mph 69 % 0.0 in
16:52 13.6 °F 8.2 °F 1017.5 in Calm   3.2 mph 70 % 0.0 in
16:57 13.7 °F 7.9 °F 1017.5 in SW 1.6 mph 3.2 mph 68 % 0.0 in
17:02 13.5 °F 7.9 °F 1017.5 in Calm   3.2 mph 69 % 0.0 in
17:12 13.4 °F 8.9 °F 1017.5 in ESE 1.6 mph 3.2 mph 74 % 0.0 in
17:17 13.3 °F 9.2 °F 1017.5 in ESE 1.6 mph 4.8 mph 76 % 0.0 in
17:22 13.1 °F 9.2 °F 1017.5 in SSW 3.2 mph 6.4 mph 77 % 0.0 in
17:27 12.9 °F 9.2 °F 1017.5 in SSE 1.6 mph 6.4 mph 78 % 0.0 in
17:32 12.9 °F 9.2 °F 1017.5 in SSW 1.6 mph 6.4 mph 78 % 0.0 in
17:37 12.8 °F 9.1 °F 1017.5 in SSW 1.6 mph 6.4 mph 78 % 0.0 in
17:42 12.8 °F 9.2 °F 1017.5 in SE 3.2 mph 6.4 mph 79 % 0.0 in
17:47 12.8 °F 8.9 °F 1017.5 in Calm   6.4 mph 77 % 0.0 in
17:52 12.7 °F 8.8 °F 1017.5 in SE 3.2 mph 6.4 mph 77 % 0.0 in
17:57 12.7 °F 9.0 °F 1017.2 in SSE 4.8 mph 6.4 mph 78 % 0.0 in
18:02 12.6 °F 8.5 °F 1017.2 in SW 4.8 mph 11.3 mph 76 % 0.0 in
18:07 12.6 °F 9.1 °F 1017.2 in SW 4.8 mph 11.3 mph 79 % 0.0 in
18:17 12.4 °F 7.5 °F 1017.2 in SW 1.6 mph 11.3 mph 72 % 0.0 in
18:22 12.5 °F 7.8 °F 1017.2 in SW 3.2 mph 11.3 mph 73 % 0.0 in
18:27 12.5 °F 7.6 °F 1017.2 in SSW 4.8 mph 11.3 mph 72 % 0.0 in
18:37 12.4 °F 7.9 °F 1017.2 in SW 4.8 mph 11.3 mph 74 % 0.0 in
18:42 12.4 °F 7.9 °F 1017.5 in SW 4.8 mph 11.3 mph 74 % 0.0 in
18:47 12.3 °F 8.0 °F 1017.5 in SW 1.6 mph 11.3 mph 75 % 0.0 in
18:52 12.3 °F 8.2 °F 1017.5 in WSW 1.6 mph 8.0 mph 76 % 0.0 in
18:57 12.2 °F 8.1 °F 1017.5 in WSW 3.2 mph 6.4 mph 76 % 0.0 in
19:02 11.8 °F 7.7 °F 1017.5 in NE 4.8 mph 4.8 mph 76 % 0.0 in
19:07 11.2 °F 7.9 °F 1017.5 in Calm   12.9 mph 80 % 0.0 in
19:12 10.9 °F 7.8 °F 1017.5 in NNE 6.4 mph 12.9 mph 81 % 0.0 in
19:17 10.6 °F 7.5 °F 1017.5 in North 4.8 mph 12.9 mph 81 % 0.0 in
19:22 10.3 °F 7.4 °F 1017.5 in NNE 1.6 mph 12.9 mph 82 % 0.0 in
19:32 9.9 °F 7.3 °F 1017.5 in North 6.4 mph 11.3 mph 84 % 0.0 in
19:37 9.7 °F 7.3 °F 1017.5 in NNW 4.8 mph 11.3 mph 85 % 0.0 in
19:42 9.6 °F 7.2 °F 1017.5 in NW 4.8 mph 11.3 mph 85 % 0.0 in
19:47 9.4 °F 7.2 °F 1017.8 in NNW 4.8 mph 9.7 mph 86 % 0.0 in
19:57 9.2 °F 7.1 °F 1017.8 in NNW 4.8 mph 12.9 mph 87 % 0.0 in
20:02 9.2 °F 7.3 °F 1017.8 in NW 1.6 mph 12.9 mph 88 % 0.0 in
20:07 9.1 °F 7.2 °F 1017.8 in NW 1.6 mph 11.3 mph 88 % 0.0 in
20:12 9.1 °F 7.4 °F 1017.8 in NNW 1.6 mph 8.0 mph 89 % 0.0 in
20:17 8.9 °F 7.2 °F 1017.8 in NNW 3.2 mph 8.0 mph 89 % 0.3 in
20:27 8.8 °F 7.2 °F 1017.8 in Calm   8.0 mph 90 % 0.5 in
20:32 8.7 °F 7.2 °F 1017.8 in NNE 1.6 mph 8.0 mph 90 % 0.5 in
20:42 8.6 °F 7.2 °F 1017.5 in NNE 4.8 mph 8.0 mph 91 % 1.0 in
20:47 8.6 °F 7.4 °F 1017.8 in NNE 3.2 mph 9.7 mph 92 % 1.3 in
20:52 8.6 °F 7.4 °F 1017.8 in NNW 1.6 mph 9.7 mph 92 % 1.3 in
20:57 8.6 °F 7.4 °F 1017.8 in Calm   9.7 mph 92 % 1.3 in
21:02 8.5 °F 7.3 °F 1017.8 in Calm   8.0 mph 92 % 1.3 in
21:07 8.5 °F 7.4 °F 1017.8 in Calm   4.8 mph 93 % 1.3 in
21:12 8.5 °F 7.4 °F 1017.8 in NNW 1.6 mph 4.8 mph 93 % 1.0 in
21:22 8.4 °F 7.3 °F 1017.8 in Calm   3.2 mph 93 % 0.8 in
21:27 8.5 °F 7.4 °F 1017.8 in Calm   3.2 mph 93 % 0.8 in
21:32 8.4 °F 7.3 °F 1017.8 in Calm   3.2 mph 93 % 0.8 in
21:37 8.4 °F 7.3 °F 1017.8 in Calm   1.6 mph 93 % 0.5 in
21:42 8.4 °F 7.3 °F 1017.8 in Calm   1.6 mph 93 % 0.5 in
21:47 8.4 °F 7.3 °F 1017.8 in Calm   1.6 mph 93 % 0.3 in
21:52 8.3 °F 7.4 °F 1017.8 in Calm   1.6 mph 94 % 0.3 in
21:57 8.3 °F 7.4 °F 1017.8 in Calm   1.6 mph 94 % 0.5 in
22:02 8.3 °F 7.4 °F 1017.8 in Calm   1.6 mph 94 % 0.5 in
22:12 8.3 °F 7.4 °F 1017.8 in Calm     94 % 0.5 in
22:17 8.3 °F 7.4 °F 1017.8 in Calm     94 % 0.5 in
22:22 8.3 °F 7.4 °F 1017.8 in Calm     94 % 0.5 in
22:27 8.3 °F 7.4 °F 1018.2 in Calm   1.6 mph 94 % 0.5 in
22:32 8.3 °F 7.4 °F 1017.8 in Calm   1.6 mph 94 % 0.3 in
22:37 8.3 °F 7.4 °F 1017.8 in NNE 1.6 mph 1.6 mph 94 % 0.5 in
22:42 8.3 °F 7.4 °F 1017.8 in NE 1.6 mph 1.6 mph 94 % 0.5 in
22:52 8.2 °F 7.3 °F 1017.8 in Calm   3.2 mph 94 % 0.5 in
22:57 8.2 °F 7.4 °F 1017.8 in Calm   3.2 mph 95 % 0.3 in
23:02 8.2 °F 7.4 °F 1017.8 in NNE 1.6 mph 3.2 mph 95 % 0.3 in
23:12 8.2 °F 7.4 °F 1017.8 in NE 4.8 mph 8.0 mph 95 % 0.3 in
23:17 8.2 °F 7.4 °F 1017.8 in NNE 3.2 mph 8.0 mph 95 % 0.3 in
23:22 8.2 °F 7.4 °F 1017.8 in NE 3.2 mph 8.0 mph 95 % 0.3 in
23:27 8.2 °F 7.4 °F 1017.8 in Calm   8.0 mph 95 % 0.3 in
23:32 8.2 °F 7.4 °F 1017.8 in Calm   6.4 mph 95 % 0.0 in
23:37 8.1 °F 7.3 °F 1017.8 in Calm   6.4 mph 95 % 0.0 in
23:42 8.1 °F 7.3 °F 1017.8 in Calm   4.8 mph 95 % 0.0 in
23:47 8.1 °F 7.3 °F 1017.8 in Calm   3.2 mph 95 % 0.0 in
23:52 8.1 °F 7.3 °F 1017.8 in NNE 1.6 mph 3.2 mph 95 % 0.0 in
23:57 8.1 °F 7.3 °F 1017.8 in Calm   4.8 mph 95 % 0.0 in
Meteo18
Compliments of Weather Underground - 4 mb

Script developed by  Jim McMurry - jmcmurry@mwt.net Adapted for the template by  Wim van der Kuil - Leuven-Template.eu

You find our weather info also at:

European Weather Network

Weather Underground

Equipment we use:

Weather-station
Davis Vue

Weather-program
Meteobridge

Weather-server
Raspberry PI 2 B+

Provider
1 and 1

Davis Vue

Meteobridge

Raspberry PI 2 B+

1 and 1